sensor_id;sensor_type;location;lat;lon;timestamp;pressure;altitude;pressure_sealevel;temperature;humidity
6449;BME280;3257;52.298;13.690;2022-07-15T00:02:16;76848.97;;;-144.77;58.79
6449;BME280;3257;52.298;13.690;2022-07-15T00:04:43;76852.94;;;-144.77;58.71
6449;BME280;3257;52.298;13.690;2022-07-15T00:07:09;76854.94;;;-144.77;59.17
6449;BME280;3257;52.298;13.690;2022-07-15T00:09:36;76872.81;;;-144.77;59.26
6449;BME280;3257;52.298;13.690;2022-07-15T00:12:21;76888.72;;;-144.77;61.19
6449;BME280;3257;52.298;13.690;2022-07-15T00:14:47;76900.66;;;-144.77;61.46
6449;BME280;3257;52.298;13.690;2022-07-15T00:17:14;76910.59;;;-144.77;61.78
6449;BME280;3257;52.298;13.690;2022-07-15T00:19:41;76928.47;;;-144.77;62.69
6449;BME280;3257;52.298;13.690;2022-07-15T00:22:08;76938.41;;;-144.77;62.87
6449;BME280;3257;52.298;13.690;2022-07-15T00:24:34;76944.38;;;-144.77;63.14
6449;BME280;3257;52.298;13.690;2022-07-15T00:27:01;76958.28;;;-144.77;63.69
6449;BME280;3257;52.298;13.690;2022-07-15T00:29:29;76958.28;;;-144.77;63.59
6449;BME280;3257;52.298;13.690;2022-07-15T00:31:56;76966.22;;;-144.77;62.69
6449;BME280;3257;52.298;13.690;2022-07-15T00:34:23;76956.28;;;-144.77;62.67
6449;BME280;3257;52.298;13.690;2022-07-15T00:36:50;76952.31;;;-144.77;62.96
6449;BME280;3257;52.298;13.690;2022-07-15T00:39:18;76954.31;;;-144.77;62.47
6449;BME280;3257;52.298;13.690;2022-07-15T00:41:45;76956.28;;;-144.77;63.32
6449;BME280;3257;52.298;13.690;2022-07-15T00:44:11;76964.25;;;-144.77;63.28
6449;BME280;3257;52.298;13.690;2022-07-15T00:46:38;76974.19;;;-144.77;64.24
6449;BME280;3257;52.298;13.690;2022-07-15T00:49:07;76984.13;;;-144.77;64.17
6449;BME280;3257;52.298;13.690;2022-07-15T00:51:41;76988.09;;;-144.77;64.94
6449;BME280;3257;52.298;13.690;2022-07-15T00:54:12;76986.09;;;-144.77;65.19
6449;BME280;3257;52.298;13.690;2022-07-15T00:56:57;76974.19;;;-144.77;64.96
6449;BME280;3257;52.298;13.690;2022-07-15T00:59:31;76972.19;;;-144.77;65.02
6449;BME280;3257;52.298;13.690;2022-07-15T01:01:58;76974.19;;;-144.77;64.99
6449;BME280;3257;52.298;13.690;2022-07-15T01:04:27;76984.13;;;-144.77;65.04
6449;BME280;3257;52.298;13.690;2022-07-15T01:06:54;76982.13;;;-144.77;64.71
6449;BME280;3257;52.298;13.690;2022-07-15T01:09:21;76976.16;;;-144.77;64.58
6449;BME280;3257;52.298;13.690;2022-07-15T01:11:48;76980.13;;;-144.77;64.39
6449;BME280;3257;52.298;13.690;2022-07-15T01:14:15;76982.13;;;-144.77;65.59
6449;BME280;3257;52.298;13.690;2022-07-15T01:16:42;76984.13;;;-144.77;65.70
6449;BME280;3257;52.298;13.690;2022-07-15T01:19:09;76988.09;;;-144.77;65.10
6449;BME280;3257;52.298;13.690;2022-07-15T01:21:36;77000.00;;;-144.77;65.58
6449;BME280;3257;52.298;13.690;2022-07-15T01:24:03;77004.00;;;-144.77;65.16
6449;BME280;3257;52.298;13.690;2022-07-15T01:26:32;77004.00;;;-144.77;65.28
6449;BME280;3257;52.298;13.690;2022-07-15T01:28:58;77015.91;;;-144.77;65.76
6449;BME280;3257;52.298;13.690;2022-07-15T01:31:25;77023.88;;;-144.77;66.51
6449;BME280;3257;52.298;13.690;2022-07-15T01:33:52;77035.78;;;-144.77;66.94
6449;BME280;3257;52.298;13.690;2022-07-15T01:36:22;77035.78;;;-144.77;66.78
6449;BME280;3257;52.298;13.690;2022-07-15T01:38:49;77043.75;;;-144.77;66.89
6449;BME280;3257;52.298;13.690;2022-07-15T01:41:36;77045.72;;;-144.77;67.14
6449;BME280;3257;52.298;13.690;2022-07-15T01:44:03;77065.59;;;-144.77;67.79
6449;BME280;3257;52.298;13.690;2022-07-15T01:46:30;77073.56;;;-144.77;67.95
6449;BME280;3257;52.298;13.690;2022-07-15T01:48:57;77079.50;;;-144.77;68.67
6449;BME280;3257;52.298;13.690;2022-07-15T01:51:42;77077.53;;;-144.77;68.24
6449;BME280;3257;52.298;13.690;2022-07-15T01:54:08;77089.44;;;-144.77;69.39
6449;BME280;3257;52.298;13.690;2022-07-15T01:56:35;77087.47;;;-144.77;69.13
6449;BME280;3257;52.298;13.690;2022-07-15T01:59:02;77083.50;;;-144.77;68.99
6449;BME280;3257;52.298;13.690;2022-07-15T02:01:31;77087.47;;;-144.77;68.99
6449;BME280;3257;52.298;13.690;2022-07-15T02:03:57;77099.38;;;-144.77;69.42
6449;BME280;3257;52.298;13.690;2022-07-15T02:06:25;77099.38;;;-144.77;69.91
6449;BME280;3257;52.298;13.690;2022-07-15T02:08:52;77099.38;;;-144.77;70.35
6449;BME280;3257;52.298;13.690;2022-07-15T02:11:18;77099.38;;;-144.77;70.72
6449;BME280;3257;52.298;13.690;2022-07-15T02:13:45;77121.25;;;-144.77;71.20
6449;BME280;3257;52.298;13.690;2022-07-15T02:16:12;77133.19;;;-144.77;71.40
6449;BME280;3257;52.298;13.690;2022-07-15T02:18:38;77155.03;;;-144.77;72.08
6449;BME280;3257;52.298;13.690;2022-07-15T02:21:05;77163.00;;;-144.77;72.52
6449;BME280;3257;52.298;13.690;2022-07-15T02:23:32;77161.00;;;-144.77;72.49
6449;BME280;3257;52.298;13.690;2022-07-15T02:25:58;77159.00;;;-144.77;72.47
6449;BME280;3257;52.298;13.690;2022-07-15T02:28:25;77168.94;;;-144.77;72.57
6449;BME280;3257;52.298;13.690;2022-07-15T02:30:52;77166.97;;;-144.77;72.83
6449;BME280;3257;52.298;13.690;2022-07-15T02:33:18;77176.91;;;-144.77;73.09
6449;BME280;3257;52.298;13.690;2022-07-15T02:35:45;77178.88;;;-144.77;73.79
6449;BME280;3257;52.298;13.690;2022-07-15T02:38:12;77174.91;;;-144.77;73.21
6449;BME280;3257;52.298;13.690;2022-07-15T02:40:38;77174.91;;;-144.77;72.80
6449;BME280;3257;52.298;13.690;2022-07-15T02:43:10;77184.84;;;-144.77;73.60
6449;BME280;3257;52.298;13.690;2022-07-15T02:45:37;77190.81;;;-144.77;73.68
6449;BME280;3257;52.298;13.690;2022-07-15T02:48:04;77184.84;;;-144.77;72.95
6449;BME280;3257;52.298;13.690;2022-07-15T02:50:31;77182.88;;;-144.77;72.86
6449;BME280;3257;52.298;13.690;2022-07-15T02:52:58;77184.84;;;-144.77;72.87
6449;BME280;3257;52.298;13.690;2022-07-15T02:55:24;77186.84;;;-144.77;72.78
6449;BME280;3257;52.298;13.690;2022-07-15T02:57:53;77188.81;;;-144.77;72.86
6449;BME280;3257;52.298;13.690;2022-07-15T03:00:20;77184.84;;;-144.77;72.92
6449;BME280;3257;52.298;13.690;2022-07-15T03:02:48;77194.78;;;-144.77;73.37
6449;BME280;3257;52.298;13.690;2022-07-15T03:05:15;77200.75;;;-144.77;73.74
6449;BME280;3257;52.298;13.690;2022-07-15T03:07:42;77210.69;;;-144.77;73.67
6449;BME280;3257;52.298;13.690;2022-07-15T03:10:09;77222.63;;;-144.77;74.22
6449;BME280;3257;52.298;13.690;2022-07-15T03:12:37;77226.59;;;-144.77;74.19
6449;BME280;3257;52.298;13.690;2022-07-15T03:15:04;77226.59;;;-144.77;73.74
6449;BME280;3257;52.298;13.690;2022-07-15T03:17:31;77228.56;;;-144.77;74.01
6449;BME280;3257;52.298;13.690;2022-07-15T03:19:58;77226.59;;;-144.77;74.04
6449;BME280;3257;52.298;13.690;2022-07-15T03:22:25;77230.56;;;-144.77;74.25
6449;BME280;3257;52.298;13.690;2022-07-15T03:24:54;77242.50;;;-144.77;74.61
6449;BME280;3257;52.298;13.690;2022-07-15T03:27:21;77246.47;;;-144.77;74.40
6449;BME280;3257;52.298;13.690;2022-07-15T03:29:48;77236.53;;;-144.77;74.22
6449;BME280;3257;52.298;13.690;2022-07-15T03:32:16;77244.47;;;-144.77;74.10
6449;BME280;3257;52.298;13.690;2022-07-15T03:34:42;77242.50;;;-144.77;74.68
6449;BME280;3257;52.298;13.690;2022-07-15T03:37:10;77242.50;;;-144.77;74.45
6449;BME280;3257;52.298;13.690;2022-07-15T03:39:38;77248.44;;;-144.77;74.99
6449;BME280;3257;52.298;13.690;2022-07-15T03:42:09;77244.47;;;-144.77;74.67
6449;BME280;3257;52.298;13.690;2022-07-15T03:44:36;77250.44;;;-144.77;74.51
6449;BME280;3257;52.298;13.690;2022-07-15T03:47:03;77240.50;;;-144.77;74.69
6449;BME280;3257;52.298;13.690;2022-07-15T03:49:29;77246.47;;;-144.77;75.17
6449;BME280;3257;52.298;13.690;2022-07-15T03:51:56;77244.47;;;-144.77;74.91
6449;BME280;3257;52.298;13.690;2022-07-15T03:54:22;77242.50;;;-144.77;74.79
6449;BME280;3257;52.298;13.690;2022-07-15T03:56:49;77242.50;;;-144.77;74.62
6449;BME280;3257;52.298;13.690;2022-07-15T03:59:17;77232.56;;;-144.77;74.55
6449;BME280;3257;52.298;13.690;2022-07-15T04:01:44;77234.53;;;-144.77;74.73
6449;BME280;3257;52.298;13.690;2022-07-15T04:04:11;77224.59;;;-144.77;74.67
6449;BME280;3257;52.298;13.690;2022-07-15T04:06:37;77212.69;;;-144.77;74.44
6449;BME280;3257;52.298;13.690;2022-07-15T04:09:04;77210.69;;;-144.77;74.16
6449;BME280;3257;52.298;13.690;2022-07-15T04:11:31;77210.69;;;-144.77;74.39
6449;BME280;3257;52.298;13.690;2022-07-15T04:13:57;77210.69;;;-144.77;74.49
6449;BME280;3257;52.298;13.690;2022-07-15T04:16:24;77212.69;;;-144.77;74.33
6449;BME280;3257;52.298;13.690;2022-07-15T04:18:51;77196.78;;;-144.77;74.25
6449;BME280;3257;52.298;13.690;2022-07-15T04:21:18;77186.84;;;-144.77;74.16
6449;BME280;3257;52.298;13.690;2022-07-15T04:23:45;77188.81;;;-144.77;74.07
6449;BME280;3257;52.298;13.690;2022-07-15T04:26:14;77184.84;;;-144.77;73.92
6449;BME280;3257;52.298;13.690;2022-07-15T04:28:43;77190.81;;;-144.77;73.72
6449;BME280;3257;52.298;13.690;2022-07-15T04:31:10;77176.91;;;-144.77;73.67
6449;BME280;3257;52.298;13.690;2022-07-15T04:33:39;77176.91;;;-144.77;73.54
6449;BME280;3257;52.298;13.690;2022-07-15T04:36:06;77170.94;;;-144.77;73.69
6449;BME280;3257;52.298;13.690;2022-07-15T04:38:34;77161.00;;;-144.77;73.80
6449;BME280;3257;52.298;13.690;2022-07-15T04:41:01;77168.94;;;-144.77;73.47
6449;BME280;3257;52.298;13.690;2022-07-15T04:43:28;77159.00;;;-144.77;73.41
6449;BME280;3257;52.298;13.690;2022-07-15T04:45:54;77155.03;;;-144.77;73.72
6449;BME280;3257;52.298;13.690;2022-07-15T04:48:24;77147.09;;;-144.77;73.16
6449;BME280;3257;52.298;13.690;2022-07-15T04:51:10;77131.19;;;-144.77;72.67
6449;BME280;3257;52.298;13.690;2022-07-15T04:53:37;77129.19;;;-144.77;72.44
6449;BME280;3257;52.298;13.690;2022-07-15T04:56:03;77121.25;;;-144.77;72.42
6449;BME280;3257;52.298;13.690;2022-07-15T04:58:30;77109.31;;;-144.77;71.88
6449;BME280;3257;52.298;13.690;2022-07-15T05:00:57;77105.34;;;-144.77;71.99
6449;BME280;3257;52.298;13.690;2022-07-15T05:03:23;77099.38;;;-144.77;71.35
6449;BME280;3257;52.298;13.690;2022-07-15T05:05:50;77085.47;;;-144.77;71.24
6449;BME280;3257;52.298;13.690;2022-07-15T05:08:17;77077.53;;;-144.77;71.27
6449;BME280;3257;52.298;13.690;2022-07-15T05:10:43;77071.56;;;-144.77;70.48
6449;BME280;3257;52.298;13.690;2022-07-15T05:13:10;77067.59;;;-144.77;70.14
6449;BME280;3257;52.298;13.690;2022-07-15T05:15:36;77045.72;;;-144.77;70.11
6449;BME280;3257;52.298;13.690;2022-07-15T05:18:03;77041.75;;;-144.77;70.38
6449;BME280;3257;52.298;13.690;2022-07-15T05:20:30;77035.78;;;-144.77;69.37
6449;BME280;3257;52.298;13.690;2022-07-15T05:22:57;77031.81;;;-144.77;69.58
6449;BME280;3257;52.298;13.690;2022-07-15T05:25:23;77027.84;;;-144.77;69.05
6449;BME280;3257;52.298;13.690;2022-07-15T05:27:53;77017.91;;;-144.77;68.47
6449;BME280;3257;52.298;13.690;2022-07-15T05:30:20;76996.03;;;-144.77;67.85
6449;BME280;3257;52.298;13.690;2022-07-15T05:32:46;76976.16;;;-144.77;67.62
6449;BME280;3257;52.298;13.690;2022-07-15T05:35:14;76944.38;;;-144.77;67.17
6449;BME280;3257;52.298;13.690;2022-07-15T05:37:44;76928.47;;;-144.77;65.48
6449;BME280;3257;52.298;13.690;2022-07-15T05:40:11;76920.53;;;-144.77;65.57
6449;BME280;3257;52.298;13.690;2022-07-15T05:42:38;76910.59;;;-144.77;64.78
6449;BME280;3257;52.298;13.690;2022-07-15T05:45:07;76924.50;;;-144.77;63.87
6449;BME280;3257;52.298;13.690;2022-07-15T05:47:34;76952.31;;;-144.77;64.21
6449;BME280;3257;52.298;13.690;2022-07-15T05:50:01;76960.25;;;-144.77;64.49
6449;BME280;3257;52.298;13.690;2022-07-15T05:52:30;76976.16;;;-144.77;64.17
6449;BME280;3257;52.298;13.690;2022-07-15T05:54:56;76946.34;;;-144.77;63.30
6449;BME280;3257;52.298;13.690;2022-07-15T05:57:23;76938.41;;;-144.77;63.25
6449;BME280;3257;52.298;13.690;2022-07-15T05:59:50;76934.44;;;-144.77;62.52
6449;BME280;3257;52.298;13.690;2022-07-15T06:02:16;76918.53;;;-144.77;62.53
6449;BME280;3257;52.298;13.690;2022-07-15T06:04:43;76904.63;;;-144.77;61.92
6449;BME280;3257;52.298;13.690;2022-07-15T06:07:11;76902.63;;;-144.77;61.46
6449;BME280;3257;52.298;13.690;2022-07-15T06:09:38;76878.78;;;-144.77;61.27
6449;BME280;3257;52.298;13.690;2022-07-15T06:12:05;76884.75;;;-144.77;60.44
6449;BME280;3257;52.298;13.690;2022-07-15T06:14:31;76854.94;;;-144.77;59.69
6449;BME280;3257;52.298;13.690;2022-07-15T06:17:04;76835.06;;;-144.77;59.89
6449;BME280;3257;52.298;13.690;2022-07-15T06:19:31;76803.25;;;-144.77;59.12
6449;BME280;3257;52.298;13.690;2022-07-15T06:21:58;76819.16;;;-144.77;58.28
6449;BME280;3257;52.298;13.690;2022-07-15T06:24:25;76799.28;;;-144.77;58.50
6449;BME280;3257;52.298;13.690;2022-07-15T06:26:52;76789.34;;;-144.77;58.17
6449;BME280;3257;52.298;13.690;2022-07-15T06:29:19;76785.38;;;-144.77;57.60
6449;BME280;3257;52.298;13.690;2022-07-15T06:31:46;76801.28;;;-144.77;57.64
6449;BME280;3257;52.298;13.690;2022-07-15T06:34:12;76807.25;;;-144.77;57.44
6449;BME280;3257;52.298;13.690;2022-07-15T06:36:39;76839.03;;;-144.77;57.63
6449;BME280;3257;52.298;13.690;2022-07-15T06:39:06;76833.06;;;-144.77;58.17
6449;BME280;3257;52.298;13.690;2022-07-15T06:41:33;76843.00;;;-144.77;57.24
6449;BME280;3257;52.298;13.690;2022-07-15T06:44:00;76845.00;;;-144.77;56.38
6449;BME280;3257;52.298;13.690;2022-07-15T06:46:28;76835.06;;;-144.77;57.05
6449;BME280;3257;52.298;13.690;2022-07-15T06:48:54;76825.13;;;-144.77;57.07
6449;BME280;3257;52.298;13.690;2022-07-15T06:51:21;76803.25;;;-144.77;56.56
6449;BME280;3257;52.298;13.690;2022-07-15T06:53:47;76785.38;;;-144.77;54.95
6449;BME280;3257;52.298;13.690;2022-07-15T06:56:14;76777.44;;;-144.77;54.62
6449;BME280;3257;52.298;13.690;2022-07-15T06:58:41;76777.44;;;-144.77;54.92
6449;BME280;3257;52.298;13.690;2022-07-15T07:01:07;76809.22;;;-144.77;54.11
6449;BME280;3257;52.298;13.690;2022-07-15T07:03:38;76775.44;;;-144.77;53.73
6449;BME280;3257;52.298;13.690;2022-07-15T07:06:23;76763.53;;;-144.77;52.39
6449;BME280;3257;52.298;13.690;2022-07-15T07:08:50;76775.44;;;-144.77;51.06
6449;BME280;3257;52.298;13.690;2022-07-15T07:11:19;76775.44;;;-144.77;51.44
6449;BME280;3257;52.298;13.690;2022-07-15T07:13:47;76761.53;;;-144.77;52.47
6449;BME280;3257;52.298;13.690;2022-07-15T07:16:14;76757.56;;;-144.77;52.37
6449;BME280;3257;52.298;13.690;2022-07-15T07:18:40;76731.72;;;-144.77;51.91
6449;BME280;3257;52.298;13.690;2022-07-15T07:21:07;76701.91;;;-144.77;51.75
6449;BME280;3257;52.298;13.690;2022-07-15T07:23:34;76684.03;;;-144.77;51.78
6449;BME280;3257;52.298;13.690;2022-07-15T07:26:01;76666.16;;;-144.77;51.62
6449;BME280;3257;52.298;13.690;2022-07-15T07:28:29;76686.00;;;-144.77;51.79
6449;BME280;3257;52.298;13.690;2022-07-15T07:30:57;76636.34;;;-144.77;50.69
6449;BME280;3257;52.298;13.690;2022-07-15T07:33:24;76660.19;;;-144.77;50.01
6449;BME280;3257;52.298;13.690;2022-07-15T07:35:51;76654.22;;;-144.77;49.64
6449;BME280;3257;52.298;13.690;2022-07-15T07:38:18;76640.31;;;-144.77;49.84
6449;BME280;3257;52.298;13.690;2022-07-15T07:40:45;76658.19;;;-144.77;49.42
6449;BME280;3257;52.298;13.690;2022-07-15T07:43:16;76646.28;;;-144.77;50.12
6449;BME280;3257;52.298;13.690;2022-07-15T07:45:44;76662.16;;;-144.77;48.17
6449;BME280;3257;52.298;13.690;2022-07-15T07:48:11;76674.09;;;-144.77;48.48
6449;BME280;3257;52.298;13.690;2022-07-15T07:50:38;76656.22;;;-144.77;49.02
6449;BME280;3257;52.298;13.690;2022-07-15T07:53:05;76642.28;;;-144.77;49.27
6449;BME280;3257;52.298;13.690;2022-07-15T07:55:32;76620.44;;;-144.77;48.76
6449;BME280;3257;52.298;13.690;2022-07-15T07:57:59;76638.31;;;-144.77;48.26
6449;BME280;3257;52.298;13.690;2022-07-15T08:00:26;76602.56;;;-144.77;49.01
6449;BME280;3257;52.298;13.690;2022-07-15T08:02:54;76578.72;;;-144.77;48.23
6449;BME280;3257;52.298;13.690;2022-07-15T08:05:22;76578.72;;;-144.77;47.61
6449;BME280;3257;52.298;13.690;2022-07-15T08:08:05;76578.72;;;-144.77;48.37
6449;BME280;3257;52.298;13.690;2022-07-15T08:10:32;76590.63;;;-144.77;46.59
6449;BME280;3257;52.298;13.690;2022-07-15T08:12:58;76586.66;;;-144.77;46.59
6449;BME280;3257;52.298;13.690;2022-07-15T08:15:27;76590.63;;;-144.77;46.96
6449;BME280;3257;52.298;13.690;2022-07-15T08:17:55;76614.47;;;-144.77;46.56
6449;BME280;3257;52.298;13.690;2022-07-15T08:20:22;76604.53;;;-144.77;46.56
6449;BME280;3257;52.298;13.690;2022-07-15T08:22:48;76626.41;;;-144.77;47.22
6449;BME280;3257;52.298;13.690;2022-07-15T08:25:15;76668.13;;;-144.77;48.63
6449;BME280;3257;52.298;13.690;2022-07-15T08:27:42;76662.16;;;-144.77;48.30
6449;BME280;3257;52.298;13.690;2022-07-15T08:30:09;76632.34;;;-144.77;47.64
6449;BME280;3257;52.298;13.690;2022-07-15T08:32:35;76632.34;;;-144.77;47.18
6449;BME280;3257;52.298;13.690;2022-07-15T08:35:02;76604.53;;;-144.77;46.49
6449;BME280;3257;52.298;13.690;2022-07-15T08:37:36;76560.81;;;-144.77;46.56
6449;BME280;3257;52.298;13.690;2022-07-15T08:40:05;76535.00;;;-144.77;45.78
6449;BME280;3257;52.298;13.690;2022-07-15T08:42:34;76546.91;;;-144.77;44.58
6449;BME280;3257;52.298;13.690;2022-07-15T08:45:01;76564.78;;;-144.77;43.89
6449;BME280;3257;52.298;13.690;2022-07-15T08:47:31;76576.72;;;-144.77;44.28
6449;BME280;3257;52.298;13.690;2022-07-15T08:50:18;76598.56;;;-144.77;44.39
6449;BME280;3257;52.298;13.690;2022-07-15T08:52:46;76586.66;;;-144.77;45.37
6449;BME280;3257;52.298;13.690;2022-07-15T08:55:14;76596.59;;;-144.77;44.21
6449;BME280;3257;52.298;13.690;2022-07-15T08:57:48;76584.66;;;-144.77;44.74
6449;BME280;3257;52.298;13.690;2022-07-15T09:00:17;76632.34;;;-144.77;44.34
6449;BME280;3257;52.298;13.690;2022-07-15T09:02:43;76638.31;;;-144.77;45.35
6449;BME280;3257;52.298;13.690;2022-07-15T09:05:21;76670.13;;;-144.77;45.36
6449;BME280;3257;52.298;13.690;2022-07-15T09:08:15;76658.19;;;-144.77;45.76
6449;BME280;3257;52.298;13.690;2022-07-15T09:13:31;76652.22;;;-144.77;44.59
6449;BME280;3257;52.298;13.690;2022-07-15T09:18:39;76626.41;;;-144.77;44.93
6449;BME280;3257;52.298;13.690;2022-07-15T09:21:22;76594.59;;;-144.77;44.25
6449;BME280;3257;52.298;13.690;2022-07-15T09:23:50;76578.72;;;-144.77;43.58
6449;BME280;3257;52.298;13.690;2022-07-15T09:26:23;76560.81;;;-144.77;43.35
6449;BME280;3257;52.298;13.690;2022-07-15T09:28:50;76594.59;;;-144.77;42.47
6449;BME280;3257;52.298;13.690;2022-07-15T09:31:47;76574.72;;;-144.77;42.66
6449;BME280;3257;52.298;13.690;2022-07-15T09:35:00;76560.81;;;-144.77;42.38
6449;BME280;3257;52.298;13.690;2022-07-15T09:37:27;76576.72;;;-144.77;42.77
6449;BME280;3257;52.298;13.690;2022-07-15T09:39:57;76588.63;;;-144.77;43.12
6449;BME280;3257;52.298;13.690;2022-07-15T09:42:24;76542.94;;;-144.77;43.94
6449;BME280;3257;52.298;13.690;2022-07-15T09:44:51;76509.16;;;-144.77;43.39
6449;BME280;3257;52.298;13.690;2022-07-15T09:47:19;76531.00;;;-144.77;43.15
6449;BME280;3257;52.298;13.690;2022-07-15T09:49:46;76556.84;;;-144.77;42.86
6449;BME280;3257;52.298;13.690;2022-07-15T09:52:14;76527.03;;;-144.77;43.22
6449;BME280;3257;52.298;13.690;2022-07-15T09:54:46;76533.00;;;-144.77;42.92
6449;BME280;3257;52.298;13.690;2022-07-15T09:57:19;76463.44;;;-144.77;42.26
6449;BME280;3257;52.298;13.690;2022-07-15T09:59:48;76403.84;;;-144.77;40.76
6449;BME280;3257;52.298;13.690;2022-07-15T10:02:15;76403.84;;;-144.77;41.09
6449;BME280;3257;52.298;13.690;2022-07-15T10:04:42;76385.97;;;-144.77;41.86
6449;BME280;3257;52.298;13.690;2022-07-15T10:07:14;76427.69;;;-144.77;40.15
6449;BME280;3257;52.298;13.690;2022-07-15T10:09:58;76515.13;;;-144.77;40.86
6449;BME280;3257;52.298;13.690;2022-07-15T10:12:45;76546.91;;;-144.77;41.43
6449;BME280;3257;52.298;13.690;2022-07-15T10:22:27;76503.19;;;-144.77;41.01
6449;BME280;3257;52.298;13.690;2022-07-15T10:25:17;76477.38;;;-144.77;40.40
6449;BME280;3257;52.298;13.690;2022-07-15T10:30:35;76523.06;;;-144.77;40.67
6449;BME280;3257;52.298;13.690;2022-07-15T10:33:07;76499.22;;;-144.77;40.54
6449;BME280;3257;52.298;13.690;2022-07-15T10:38:35;76475.38;;;-144.77;41.51
6449;BME280;3257;52.298;13.690;2022-07-15T10:46:28;76471.41;;;-144.77;39.61
6449;BME280;3257;52.298;13.690;2022-07-15T10:56:44;76324.34;;;-144.77;39.59
6449;BME280;3257;52.298;13.690;2022-07-15T10:59:14;76328.34;;;-144.77;39.98
6449;BME280;3257;52.298;13.690;2022-07-15T11:01:45;76340.25;;;-144.77;39.62
6449;BME280;3257;52.298;13.690;2022-07-15T11:04:21;76326.34;;;-144.77;40.87
6449;BME280;3257;52.298;13.690;2022-07-15T11:09:56;76344.22;;;-144.77;39.18
6449;BME280;3257;52.298;13.690;2022-07-15T11:17:46;76431.66;;;-144.77;39.45
6449;BME280;3257;52.298;13.690;2022-07-15T11:20:21;76423.72;;;-144.77;39.43
6449;BME280;3257;52.298;13.690;2022-07-15T11:22:53;76459.47;;;-144.77;39.30
6449;BME280;3257;52.298;13.690;2022-07-15T11:25:31;76447.56;;;-144.77;39.36
6449;BME280;3257;52.298;13.690;2022-07-15T11:30:46;76447.56;;;-144.77;39.63
6449;BME280;3257;52.298;13.690;2022-07-15T11:33:16;76405.81;;;-144.77;39.76
6449;BME280;3257;52.298;13.690;2022-07-15T11:35:47;76395.91;;;-144.77;39.24
6449;BME280;3257;52.298;13.690;2022-07-15T11:38:14;76387.94;;;-144.77;39.14
6449;BME280;3257;52.298;13.690;2022-07-15T11:40:50;76358.13;;;-144.77;39.36
6449;BME280;3257;52.298;13.690;2022-07-15T11:43:36;76372.03;;;-144.77;39.40
6449;BME280;3257;52.298;13.690;2022-07-15T11:46:22;76403.84;;;-144.77;38.96
6449;BME280;3257;52.298;13.690;2022-07-15T11:48:51;76427.69;;;-144.77;40.59
6449;BME280;3257;52.298;13.690;2022-07-15T11:51:27;76455.50;;;-144.77;40.42
6449;BME280;3257;52.298;13.690;2022-07-15T11:53:55;76445.56;;;-144.77;40.64
6449;BME280;3257;52.298;13.690;2022-07-15T11:56:23;76469.41;;;-144.77;40.61
6449;BME280;3257;52.298;13.690;2022-07-15T11:58:57;76449.53;;;-144.77;39.74
6449;BME280;3257;52.298;13.690;2022-07-15T12:01:28;76431.66;;;-144.77;39.90
6449;BME280;3257;52.298;13.690;2022-07-15T12:03:57;76431.66;;;-144.77;39.52
6449;BME280;3257;52.298;13.690;2022-07-15T12:06:30;76393.91;;;-144.77;38.72
6449;BME280;3257;52.298;13.690;2022-07-15T12:09:03;76366.09;;;-144.77;38.50
6449;BME280;3257;52.298;13.690;2022-07-15T12:11:35;76340.25;;;-144.77;38.46
6449;BME280;3257;52.298;13.690;2022-07-15T12:14:10;76352.19;;;-144.77;38.17
6449;BME280;3257;52.298;13.690;2022-07-15T12:16:47;76324.34;;;-144.77;37.62
6449;BME280;3257;52.298;13.690;2022-07-15T12:19:25;76316.41;;;-144.77;37.24
6449;BME280;3257;52.298;13.690;2022-07-15T12:21:54;76302.50;;;-144.77;36.69
6449;BME280;3257;52.298;13.690;2022-07-15T12:24:23;76310.44;;;-144.77;37.01
6449;BME280;3257;52.298;13.690;2022-07-15T12:29:19;76292.56;;;-144.77;36.03
6449;BME280;3257;52.298;13.690;2022-07-15T12:32:08;76300.50;;;-144.77;35.83
6449;BME280;3257;52.298;13.690;2022-07-15T12:42:26;76195.19;;;-144.77;35.04
6449;BME280;3257;52.298;13.690;2022-07-15T12:45:06;76225.00;;;-144.77;34.47
6449;BME280;3257;52.298;13.690;2022-07-15T12:50:25;76217.06;;;-144.77;34.42
6449;BME280;3257;52.298;13.690;2022-07-15T12:52:55;76207.13;;;-144.77;34.59
6449;BME280;3257;52.298;13.690;2022-07-15T12:55:25;76246.88;;;-144.77;34.87
6449;BME280;3257;52.298;13.690;2022-07-15T12:58:03;76260.78;;;-144.77;35.30
6449;BME280;3257;52.298;13.690;2022-07-15T13:00:30;76276.66;;;-144.77;35.36
6449;BME280;3257;52.298;13.690;2022-07-15T13:08:01;76298.53;;;-144.77;36.08
6449;BME280;3257;52.298;13.690;2022-07-15T13:10:28;76308.47;;;-144.77;35.89
6449;BME280;3257;52.298;13.690;2022-07-15T13:12:56;76292.56;;;-144.77;36.08
6449;BME280;3257;52.298;13.690;2022-07-15T13:15:22;76272.69;;;-144.77;36.15
6449;BME280;3257;52.298;13.690;2022-07-15T13:17:49;76254.81;;;-144.77;36.09
6449;BME280;3257;52.298;13.690;2022-07-15T13:20:16;76225.00;;;-144.77;36.04
6449;BME280;3257;52.298;13.690;2022-07-15T13:22:42;76187.25;;;-144.77;36.17
6449;BME280;3257;52.298;13.690;2022-07-15T13:25:09;76209.09;;;-144.77;35.31
6449;BME280;3257;52.298;13.690;2022-07-15T13:27:36;76246.88;;;-144.77;36.34
6449;BME280;3257;52.298;13.690;2022-07-15T13:30:04;76272.69;;;-144.77;36.14
6449;BME280;3257;52.298;13.690;2022-07-15T13:32:30;76334.28;;;-144.77;36.46
6449;BME280;3257;52.298;13.690;2022-07-15T13:34:57;76364.09;;;-144.77;36.91
6449;BME280;3257;52.298;13.690;2022-07-15T13:37:24;76332.31;;;-144.77;36.88
6449;BME280;3257;52.298;13.690;2022-07-15T13:39:51;76296.53;;;-144.77;37.01
6449;BME280;3257;52.298;13.690;2022-07-15T13:42:18;76250.84;;;-144.77;36.46
6449;BME280;3257;52.298;13.690;2022-07-15T13:44:45;76223.03;;;-144.77;36.43
6449;BME280;3257;52.298;13.690;2022-07-15T13:47:11;76209.09;;;-144.77;36.09
6449;BME280;3257;52.298;13.690;2022-07-15T13:49:38;76201.16;;;-144.77;35.17
6449;BME280;3257;52.298;13.690;2022-07-15T13:52:23;76199.19;;;-144.77;35.48
6449;BME280;3257;52.298;13.690;2022-07-15T13:54:50;76211.09;;;-144.77;35.24
6449;BME280;3257;52.298;13.690;2022-07-15T13:57:18;76242.88;;;-144.77;35.56
6449;BME280;3257;52.298;13.690;2022-07-15T13:59:44;76268.72;;;-144.77;36.53
6449;BME280;3257;52.298;13.690;2022-07-15T14:02:15;76290.56;;;-144.77;35.42